TimeMDT,TemperatureF,Dew PointF,Humidity,Sea Level PressureIn,VisibilityMPH,Wind Direction,Wind SpeedMPH,Gust SpeedMPH,PrecipitationIn,Events,Conditions,WindDirDegrees,DateUTC
12:56 AM,48.9,36.0,61,29.97,10.0,ESE,6.9,-,N/A,,Clear,110,2012-09-26 06:56:00
1:56 AM,48.0,35.1,61,29.98,10.0,East,5.8,-,N/A,,Clear,100,2012-09-26 07:56:00
2:56 AM,44.1,35.1,71,29.98,10.0,East,8.1,-,N/A,,Clear,100,2012-09-26 08:56:00
3:56 AM,42.1,34.0,73,29.99,10.0,ESE,6.9,-,N/A,,Clear,110,2012-09-26 09:56:00
4:56 AM,42.1,34.0,73,29.99,10.0,SE,5.8,-,N/A,,Clear,130,2012-09-26 10:56:00
6:56 AM,41.0,34.0,76,30.05,10.0,SE,6.9,-,N/A,,Clear,140,2012-09-26 12:56:00
7:56 AM,48.0,37.0,66,30.04,10.0,SSE,9.2,-,N/A,,Clear,160,2012-09-26 13:56:00
8:56 AM,59.0,37.9,46,30.05,10.0,SSE,9.2,-,N/A,,Clear,160,2012-09-26 14:56:00
9:56 AM,66.0,37.0,34,30.03,10.0,SSE,10.4,-,N/A,,Clear,160,2012-09-26 15:56:00
10:56 AM,72.0,37.0,28,30.03,10.0,South,10.4,-,N/A,,Clear,170,2012-09-26 16:56:00
11:56 AM,77.0,37.0,24,30.01,10.0,South,16.1,-,N/A,,Clear,180,2012-09-26 17:56:00
12:56 PM,80.1,36.0,20,29.99,10.0,SSE,16.1,23.0,N/A,,Clear,160,2012-09-26 18:56:00
1:56 PM,81.0,33.1,18,29.98,10.0,South,12.7,23.0,N/A,,Clear,190,2012-09-26 19:56:00
2:56 PM,82.0,33.1,17,29.99,10.0,South,12.7,-,N/A,,Clear,170,2012-09-26 20:56:00
3:56 PM,82.0,33.1,17,29.98,10.0,South,12.7,18.4,N/A,,Clear,180,2012-09-26 21:56:00
4:56 PM,79.0,34.0,20,29.99,10.0,South,6.9,-,N/A,,Clear,180,2012-09-26 22:56:00
5:56 PM,75.0,34.0,22,29.99,10.0,SSE,5.8,-,N/A,,Clear,160,2012-09-26 23:56:00
6:56 PM,68.0,33.1,27,30.01,10.0,SE,9.2,-,N/A,,Clear,140,2012-09-27 00:56:00
7:56 PM,60.1,32.0,35,30.03,10.0,South,9.2,-,N/A,,Clear,170,2012-09-27 01:56:00
8:56 PM,61.0,32.0,34,30.02,10.0,SSE,11.5,-,N/A,,Clear,160,2012-09-27 02:56:00
9:56 PM,62.1,33.1,34,30.02,10.0,South,12.7,-,N/A,,Clear,170,2012-09-27 03:56:00
10:56 PM,63.0,34.0,34,30.02,10.0,South,13.8,-,N/A,,Clear,170,2012-09-27 04:56:00
11:56 PM,61.0,34.0,36,30.02,10.0,South,11.5,-,N/A,,Clear,180,2012-09-27 05:56:00